Time;durP1;ratioP1;P1;durP2;ratioP2;P2;SDS_P1;SDS_P2;PMS_P1;PMS_P2;Temp;Humidity;BMP_temperature;BMP_pressure;BME280_temperature;BME280_humidity;BME280_pressure;Samples;Min_cycle;Max_cycle;Signal;HPM_P1;HPM_P2
2022/10/25 00:01:17;;;;;;;1.83;0.30;;;11.50;99.90;;;;;;5077134;28;20501;-89
2022/10/25 00:03:43;;;;;;;6.83;0.47;;;11.50;99.90;;;;;;5076948;28;20191;-88
2022/10/25 00:06:12;;;;;;;4.20;0.90;;;11.50;99.90;;;;;;5076034;28;20419;-88
2022/10/25 00:08:38;;;;;;;2.40;0.40;;;11.40;99.90;;;;;;5058804;28;20178;-88
2022/10/25 00:11:05;;;;;;;4.70;0.53;;;11.50;99.90;;;;;;5076948;28;20810;-88
2022/10/25 00:13:30;;;;;;;4.60;1.17;;;11.60;99.90;;;;;;5076788;28;20473;-89
2022/10/25 00:15:56;;;;;;;2.60;0.57;;;11.70;99.90;;;;;;5059296;28;20425;-89
2022/10/25 00:18:21;;;;;;;7.40;0.90;;;11.70;99.90;;;;;;5059490;28;20709;-89
2022/10/25 00:20:47;;;;;;;3.87;0.80;;;11.80;99.90;;;;;;5059236;28;20258;-89
2022/10/25 00:23:13;;;;;;;6.07;0.63;;;11.80;99.90;;;;;;5059841;28;20211;-88
2022/10/25 00:25:39;;;;;;;4.07;1.40;;;11.80;99.90;;;;;;5061762;28;20609;-89
2022/10/25 00:28:05;;;;;;;1.77;0.20;;;11.90;99.90;;;;;;5063255;28;20452;-90
2022/10/25 00:30:30;;;;;;;5.70;0.63;;;11.90;99.90;;;;;;5061482;28;20270;-89
2022/10/25 00:32:56;;;;;;;3.83;0.53;;;12.00;99.90;;;;;;5061426;28;20201;-90
2022/10/25 00:35:22;;;;;;;2.93;0.70;;;12.00;99.90;;;;;;5059558;28;20185;-89
2022/10/25 00:37:48;;;;;;;4.40;1.67;;;11.90;99.90;;;;;;5059865;28;20537;-89
2022/10/25 00:40:14;;;;;;;3.30;0.83;;;12.00;99.90;;;;;;5059207;28;20415;-90
2022/10/25 00:42:40;;;;;;;3.33;0.67;;;12.00;99.90;;;;;;5059221;28;20429;-89
2022/10/25 00:45:27;;;;;;;3.53;0.60;;;12.10;99.90;;;;;;5059379;28;20276;-89
2022/10/25 00:48:00;;;;;;;5.40;1.17;;;12.10;99.90;;;;;;5059876;28;20195;-89
2022/10/25 00:50:53;;;;;;;3.37;0.30;;;12.00;99.90;;;;;;5059541;28;20420;-89
2022/10/25 00:53:27;;;;;;;7.70;0.90;;;12.10;99.90;;;;;;5054427;28;20459;-90
2022/10/25 00:55:58;;;;;;;4.80;1.20;;;12.20;99.90;;;;;;5078013;28;20903;-90
2022/10/25 00:58:26;;;;;;;4.00;0.87;;;12.20;99.90;;;;;;5061187;28;20407;-89
2022/10/25 01:00:51;;;;;;;3.80;0.97;;;12.30;99.90;;;;;;5079139;28;20422;-91
2022/10/25 01:03:19;;;;;;;4.00;0.70;;;12.30;99.90;;;;;;5060191;28;20422;-89
2022/10/25 01:05:45;;;;;;;3.93;0.70;;;12.30;99.90;;;;;;5059562;28;20185;-90
2022/10/25 01:08:11;;;;;;;6.23;0.73;;;12.30;99.90;;;;;;5059257;28;20457;-89
2022/10/25 01:10:38;;;;;;;7.37;1.37;;;12.40;99.90;;;;;;5059505;28;20806;-90
2022/10/25 01:13:04;;;;;;;8.63;2.03;;;12.40;99.90;;;;;;5058715;28;20548;-89
2022/10/25 01:15:59;;;;;;;3.77;1.17;;;12.40;99.90;;;;;;5075927;28;20803;-88
2022/10/25 01:18:33;;;;;;;2.27;0.97;;;12.40;99.90;;;;;;5058710;28;20189;-90
2022/10/25 01:21:24;;;;;;;2.57;0.87;;;12.40;99.90;;;;;;5058392;28;20454;-90
2022/10/25 01:23:54;;;;;;;4.47;0.57;;;12.50;99.90;;;;;;5076092;28;20438;-88
2022/10/25 01:26:31;;;;;;;5.20;1.33;;;12.40;99.90;;;;;;5058945;28;20419;-90
2022/10/25 01:29:35;;;;;;;4.20;0.70;;;12.40;99.90;;;;;;5058779;28;20461;-89
2022/10/25 01:32:31;;;;;;;7.73;0.70;;;12.40;99.90;;;;;;5058261;28;20417;-90
2022/10/25 01:35:07;;;;;;;2.80;0.80;;;12.40;99.90;;;;;;5058487;28;20462;-90
2022/10/25 01:37:42;;;;;;;7.40;1.40;;;12.40;99.90;;;;;;5076698;28;20431;-90
2022/10/25 01:40:47;;;;;;;5.87;1.00;;;12.50;99.90;;;;;;5075760;28;20429;-90
2022/10/25 01:43:15;;;;;;;4.57;0.63;;;12.60;99.90;;;;;;5054265;28;20431;-89
2022/10/25 01:46:18;;;;;;;3.37;0.50;;;12.60;99.90;;;;;;5075460;28;20416;-90
2022/10/25 01:48:49;;;;;;;3.80;0.70;;;12.60;99.90;;;;;;5076011;28;20407;-89
2022/10/25 01:51:16;;;;;;;5.10;1.03;;;12.60;99.90;;;;;;5076114;28;20426;-90
2022/10/25 01:53:49;;;;;;;1.60;0.50;;;12.60;99.90;;;;;;5076690;28;20457;-89
2022/10/25 01:56:20;;;;;;;3.10;0.70;;;12.60;99.90;;;;;;5077045;28;20431;-90
2022/10/25 01:59:09;;;;;;;4.10;0.73;;;12.60;99.90;;;;;;5076645;28;20878;-90
2022/10/25 02:01:48;;;;;;;4.53;0.83;;;12.60;99.90;;;;;;5077806;28;20426;-89
2022/10/25 02:04:27;;;;;;;2.63;0.50;;;12.60;99.90;;;;;;5078397;28;20411;-90
2022/10/25 02:07:24;;;;;;;6.40;0.70;;;12.70;99.90;;;;;;5082972;28;20494;-90
2022/10/25 02:10:04;;;;;;;5.53;0.70;;;12.60;99.90;;;;;;5075613;28;20931;-90
2022/10/25 02:12:41;;;;;;;7.43;0.70;;;12.60;99.90;;;;;;5058122;28;20422;-90
2022/10/25 02:15:30;;;;;;;7.00;0.80;;;12.70;99.90;;;;;;5076225;28;20420;-90
2022/10/25 02:18:03;;;;;;;7.23;1.03;;;12.70;99.90;;;;;;5063924;28;20464;-90
2022/10/25 02:20:32;;;;;;;3.23;0.83;;;12.70;99.90;;;;;;5076448;28;20483;-89
2022/10/25 02:23:05;;;;;;;3.43;0.90;;;12.70;99.90;;;;;;5075716;28;20924;-89
2022/10/25 02:25:36;;;;;;;5.83;0.67;;;12.70;99.90;;;;;;5058161;28;20441;-90
2022/10/25 02:28:05;;;;;;;2.37;0.97;;;12.60;99.90;;;;;;5075837;28;20538;-90
2022/10/25 02:30:33;;;;;;;2.73;1.30;;;12.60;99.90;;;;;;5075168;28;20419;-88
2022/10/25 02:33:02;;;;;;;5.37;0.90;;;12.70;99.90;;;;;;5075991;28;20481;-89
2022/10/25 02:35:27;;;;;;;4.13;1.20;;;12.60;99.90;;;;;;5075184;28;20420;-89
2022/10/25 02:37:53;;;;;;;3.70;1.90;;;12.70;99.90;;;;;;5075776;28;20926;-89
2022/10/25 02:40:18;;;;;;;8.00;1.67;;;12.60;99.90;;;;;;5075463;28;20265;-90
2022/10/25 02:42:44;;;;;;;4.63;0.87;;;12.60;99.90;;;;;;5057475;28;20261;-89
2022/10/25 02:45:10;;;;;;;4.23;1.03;;;12.60;99.90;;;;;;5075278;28;20184;-90
2022/10/25 02:47:35;;;;;;;5.30;1.40;;;12.60;99.90;;;;;;5075904;28;20168;-89
2022/10/25 02:50:01;;;;;;;3.43;1.00;;;12.70;99.90;;;;;;5075417;28;20178;-89
2022/10/25 02:52:26;;;;;;;6.50;1.70;;;12.70;99.90;;;;;;5075487;28;20166;-88
2022/10/25 02:54:52;;;;;;;5.37;1.73;;;12.80;99.90;;;;;;5075901;28;20212;-90
2022/10/25 02:57:17;;;;;;;6.90;1.73;;;12.80;99.90;;;;;;5075393;28;20173;-89
2022/10/25 02:59:43;;;;;;;5.60;2.50;;;12.80;99.90;;;;;;5075310;28;20168;-90
2022/10/25 03:02:08;;;;;;;4.23;1.70;;;12.90;99.90;;;;;;5076151;28;20186;-90
2022/10/25 03:04:34;;;;;;;4.80;1.77;;;12.90;99.90;;;;;;5074906;28;20310;-91
2022/10/25 03:06:59;;;;;;;7.87;2.77;;;12.90;99.90;;;;;;5074254;28;20330;-90
2022/10/25 03:09:25;;;;;;;5.57;2.17;;;13.00;99.90;;;;;;5055663;28;20184;-89
2022/10/25 03:11:50;;;;;;;6.20;2.53;;;13.00;99.90;;;;;;5073644;28;20615;-89
2022/10/25 03:14:16;;;;;;;6.10;2.33;;;13.00;99.90;;;;;;5073559;28;20595;-89
2022/10/25 03:16:41;;;;;;;11.70;3.27;;;13.00;99.90;;;;;;5074956;28;20185;-89
2022/10/25 03:19:07;;;;;;;6.50;2.40;;;13.00;99.90;;;;;;5077647;28;20546;-89
2022/10/25 03:21:33;;;;;;;8.80;2.90;;;13.10;99.90;;;;;;5077506;28;20584;-89
2022/10/25 03:23:58;;;;;;;7.00;2.30;;;13.00;99.90;;;;;;5077734;28;20166;-88
2022/10/25 03:26:24;;;;;;;5.73;3.07;;;13.00;99.90;;;;;;5077326;28;20165;-90
2022/10/25 03:28:49;;;;;;;8.43;3.30;;;13.10;99.90;;;;;;5077530;28;20209;-89
2022/10/25 03:31:16;;;;;;;6.37;3.63;;;13.00;99.90;;;;;;5077453;28;20204;-90
2022/10/25 03:33:42;;;;;;;6.50;3.10;;;13.00;99.90;;;;;;5077344;28;20230;-89
2022/10/25 03:36:08;;;;;;;7.63;3.33;;;13.10;99.90;;;;;;5059288;28;20483;-89
2022/10/25 03:38:34;;;;;;;5.53;3.43;;;13.10;99.90;;;;;;5077244;28;20857;-88
2022/10/25 03:40:59;;;;;;;11.63;4.47;;;13.10;99.90;;;;;;5059759;28;20430;-91
2022/10/25 03:43:25;;;;;;;12.93;3.23;;;13.10;99.90;;;;;;5061603;28;20198;-89
2022/10/25 03:45:50;;;;;;;6.47;3.40;;;13.10;99.90;;;;;;5059285;28;20637;-89
2022/10/25 03:48:16;;;;;;;7.97;2.83;;;13.20;99.90;;;;;;5059164;28;20206;-89
2022/10/25 03:50:41;;;;;;;7.87;4.10;;;13.20;99.90;;;;;;5059077;28;20218;-89
2022/10/25 03:53:08;;;;;;;7.20;3.33;;;13.10;99.90;;;;;;5058867;28;20570;-88
2022/10/25 03:55:33;;;;;;;13.33;4.90;;;13.10;99.90;;;;;;5076742;28;20166;-88
2022/10/25 03:57:59;;;;;;;9.37;4.13;;;13.00;99.90;;;;;;5058609;28;20414;-88
2022/10/25 04:00:25;;;;;;;12.30;3.60;;;13.10;99.90;;;;;;5078716;28;20200;-89
2022/10/25 04:02:58;;;;;;;8.70;3.80;;;13.10;99.90;;;;;;5078322;28;20196;-90
2022/10/25 04:05:24;;;;;;;8.63;4.23;;;13.10;99.90;;;;;;5077409;28;20189;-89
2022/10/25 04:07:49;;;;;;;8.60;4.57;;;13.10;99.90;;;;;;5077031;28;20516;-88
2022/10/25 04:10:15;;;;;;;9.87;4.87;;;13.20;99.90;;;;;;5077370;28;20415;-89
2022/10/25 04:12:41;;;;;;;7.10;3.93;;;13.20;99.90;;;;;;5077667;28;20161;-88
2022/10/25 04:15:07;;;;;;;6.83;4.87;;;13.20;99.90;;;;;;5075946;28;20173;-89
2022/10/25 04:17:32;;;;;;;6.47;3.40;;;13.20;99.90;;;;;;5058504;28;20207;-88
2022/10/25 04:19:58;;;;;;;9.13;3.07;;;13.20;99.90;;;;;;5058161;28;20777;-89
2022/10/25 04:22:23;;;;;;;8.37;3.80;;;13.20;99.90;;;;;;5059664;28;20180;-88
2022/10/25 04:24:49;;;;;;;8.00;3.30;;;13.20;99.90;;;;;;5076268;28;20172;-89
2022/10/25 04:27:14;;;;;;;8.47;3.67;;;13.20;99.90;;;;;;5075895;28;20680;-89
2022/10/25 04:29:40;;;;;;;6.63;3.60;;;13.20;99.90;;;;;;5059298;28;20264;-92
2022/10/25 04:32:06;;;;;;;8.23;4.03;;;13.20;99.90;;;;;;5059705;28;20190;-90
2022/10/25 04:34:31;;;;;;;6.17;2.90;;;13.20;99.90;;;;;;5059259;28;20197;-89
2022/10/25 04:36:56;;;;;;;6.90;4.43;;;13.20;99.90;;;;;;5060355;28;20169;-90
2022/10/25 04:39:23;;;;;;;6.70;3.67;;;13.10;99.90;;;;;;5059851;28;20186;-91
2022/10/25 04:41:48;;;;;;;7.40;3.57;;;13.10;99.90;;;;;;5077593;28;20633;-92
2022/10/25 04:44:14;;;;;;;4.97;2.70;;;13.00;99.90;;;;;;5076433;28;20411;-91
2022/10/25 04:46:39;;;;;;;7.00;3.77;;;13.00;99.90;;;;;;5076425;28;20182;-89
2022/10/25 04:49:05;;;;;;;5.03;3.13;;;13.00;99.90;;;;;;5076411;28;20176;-89
2022/10/25 04:51:30;;;;;;;8.50;3.77;;;13.00;99.90;;;;;;5076219;28;20180;-91
2022/10/25 04:53:55;;;;;;;9.20;3.57;;;13.00;99.90;;;;;;5058359;28;20209;-89
2022/10/25 04:56:21;;;;;;;6.93;3.80;;;12.90;99.90;;;;;;5060045;28;20262;-93
2022/10/25 04:58:50;;;;;;;8.87;4.10;;;12.80;99.90;;;;;;5058856;28;20181;-90
2022/10/25 05:01:17;;;;;;;5.60;2.97;;;12.70;99.90;;;;;;5076350;28;20415;-92
2022/10/25 05:03:42;;;;;;;7.23;3.20;;;12.70;99.90;;;;;;5077457;28;20434;-92
2022/10/25 05:06:17;;;;;;;7.90;4.47;;;12.60;99.90;;;;;;5059258;28;20420;-92
2022/10/25 05:08:45;;;;;;;8.27;3.80;;;12.60;99.90;;;;;;5058811;28;20275;-89
2022/10/25 05:11:12;;;;;;;7.90;3.40;;;12.60;99.90;;;;;;5059625;28;20837;-88
2022/10/25 05:13:39;;;;;;;6.90;3.60;;;12.50;99.90;;;;;;5059926;28;20478;-92
2022/10/25 05:16:06;;;;;;;9.70;3.57;;;12.40;99.90;;;;;;5058680;28;20422;-89
2022/10/25 05:18:34;;;;;;;8.90;3.53;;;12.40;99.90;;;;;;5075771;28;20477;-89
2022/10/25 05:21:04;;;;;;;9.97;4.63;;;12.30;99.90;;;;;;5075533;28;20452;-89
2022/10/25 05:23:30;;;;;;;7.13;4.23;;;12.40;99.90;;;;;;5075450;28;20403;-90
2022/10/25 05:26:04;;;;;;;5.90;3.27;;;12.30;99.90;;;;;;5075662;28;20431;-90
2022/10/25 05:28:30;;;;;;;7.10;3.27;;;12.30;99.90;;;;;;5057530;28;20422;-91
2022/10/25 05:30:57;;;;;;;7.57;3.53;;;12.40;99.90;;;;;;5075469;28;20505;-89
2022/10/25 05:33:22;;;;;;;7.67;4.07;;;12.40;99.90;;;;;;5075368;28;20469;-90
2022/10/25 05:35:48;;;;;;;6.87;3.67;;;12.40;99.90;;;;;;5057494;28;20441;-89
2022/10/25 05:38:13;;;;;;;8.57;3.70;;;12.40;99.90;;;;;;5075093;28;20223;-89
2022/10/25 05:40:39;;;;;;;8.93;4.40;;;12.40;99.90;;;;;;5056326;28;20191;-89
2022/10/25 05:43:04;;;;;;;7.50;3.40;;;12.30;99.90;;;;;;5074585;28;20177;-91
2022/10/25 05:45:30;;;;;;;8.30;3.63;;;12.30;99.90;;;;;;5074623;28;20253;-88
2022/10/25 05:47:55;;;;;;;5.30;2.87;;;12.20;99.90;;;;;;5074275;28;20229;-90
2022/10/25 05:50:21;;;;;;;8.47;4.00;;;12.20;99.90;;;;;;5057245;28;20201;-89
2022/10/25 05:52:46;;;;;;;7.70;4.53;;;12.20;99.90;;;;;;5076318;28;20181;-88
2022/10/25 05:55:12;;;;;;;6.73;3.80;;;12.20;99.90;;;;;;5076019;28;20199;-89
2022/10/25 05:57:37;;;;;;;10.53;5.40;;;12.30;99.90;;;;;;5075037;28;20183;-88
2022/10/25 06:00:03;;;;;;;8.23;4.43;;;12.30;99.90;;;;;;5075512;28;20166;-89
2022/10/25 06:02:29;;;;;;;8.00;3.57;;;12.40;99.90;;;;;;5074554;28;20203;-89
2022/10/25 06:04:54;;;;;;;10.60;4.27;;;12.50;99.90;;;;;;5074515;28;20411;-89
2022/10/25 06:07:20;;;;;;;8.27;3.83;;;12.50;99.90;;;;;;5075133;28;20216;-89
2022/10/25 06:09:45;;;;;;;7.83;3.03;;;12.60;99.90;;;;;;5058337;28;20316;-90
2022/10/25 06:12:11;;;;;;;7.17;3.63;;;12.60;99.90;;;;;;5058363;28;20582;-89
2022/10/25 06:14:36;;;;;;;6.50;3.53;;;12.60;99.90;;;;;;5058538;28;20202;-89
2022/10/25 06:17:02;;;;;;;6.43;2.77;;;12.70;99.90;;;;;;5058068;28;20174;-89
2022/10/25 06:19:27;;;;;;;4.67;2.13;;;12.70;99.90;;;;;;5057477;28;20195;-89
2022/10/25 06:21:54;;;;;;;5.97;3.10;;;12.70;99.90;;;;;;5057893;28;20304;-88
2022/10/25 06:24:19;;;;;;;6.80;2.53;;;12.70;99.90;;;;;;5076081;28;20184;-90
2022/10/25 06:26:45;;;;;;;4.87;3.13;;;12.80;99.90;;;;;;5057131;28;20425;-89
2022/10/25 06:29:10;;;;;;;8.93;3.13;;;12.90;99.90;;;;;;5075141;28;20187;-89
2022/10/25 06:31:36;;;;;;;5.80;3.30;;;12.90;99.90;;;;;;5057168;28;20205;-89
2022/10/25 06:34:02;;;;;;;4.30;2.87;;;13.00;99.90;;;;;;5057208;28;20605;-89
2022/10/25 06:36:30;;;;;;;5.53;3.50;;;13.00;99.90;;;;;;5058644;28;20542;-89
2022/10/25 06:38:55;;;;;;;6.40;2.60;;;13.00;99.90;;;;;;5058211;28;20425;-88
2022/10/25 06:41:23;;;;;;;8.60;3.60;;;13.00;99.90;;;;;;5057613;28;20760;-89
2022/10/25 06:43:49;;;;;;;13.37;4.40;;;13.10;99.90;;;;;;5058261;28;20303;-89
2022/10/25 06:46:23;;;;;;;7.20;3.10;;;13.10;99.90;;;;;;5057678;28;20439;-90
2022/10/25 06:48:51;;;;;;;5.77;2.67;;;13.10;99.90;;;;;;5057612;28;20426;-90
2022/10/25 06:51:17;;;;;;;6.20;2.63;;;13.10;99.90;;;;;;5039300;22;20496;-89
2022/10/25 06:53:43;;;;;;;7.57;4.10;;;13.10;99.90;;;;;;5034428;28;20465;-89
2022/10/25 06:56:11;;;;;;;5.57;3.13;;;13.10;99.90;;;;;;5016533;28;20420;-89
2022/10/25 06:58:45;;;;;;;6.30;3.90;;;13.20;99.90;;;;;;5034500;28;20207;-92
2022/10/25 07:01:13;;;;;;;7.70;4.00;;;13.20;99.90;;;;;;5034976;28;20408;-89
2022/10/25 07:03:39;;;;;;;5.07;3.30;;;13.20;99.90;;;;;;5016861;28;20509;-91
2022/10/25 07:06:08;;;;;;;8.33;3.10;;;13.20;99.90;;;;;;5034160;28;20918;-89
2022/10/25 07:08:35;;;;;;;5.47;3.40;;;13.20;99.90;;;;;;5035551;28;20413;-88
2022/10/25 07:11:02;;;;;;;7.93;3.70;;;13.30;99.90;;;;;;5017828;28;20991;-93
2022/10/25 07:13:30;;;;;;;6.90;3.80;;;13.30;99.90;;;;;;5016996;28;20465;-89
2022/10/25 07:16:07;;;;;;;10.83;4.97;;;13.30;99.90;;;;;;5034531;28;20409;-89
2022/10/25 07:18:34;;;;;;;8.93;4.30;;;13.30;99.90;;;;;;5033431;28;20409;-90
2022/10/25 07:21:01;;;;;;;8.30;4.80;;;13.30;99.90;;;;;;5016502;28;20429;-88
2022/10/25 07:23:41;;;;;;;10.60;3.47;;;13.40;99.90;;;;;;5037143;28;20936;-91
2022/10/25 07:26:08;;;;;;;7.17;3.50;;;13.40;99.90;;;;;;5018791;28;20435;-91
2022/10/25 07:28:34;;;;;;;5.20;3.30;;;13.40;99.90;;;;;;5033883;28;20548;-88
2022/10/25 07:30:59;;;;;;;5.40;3.13;;;13.40;99.90;;;;;;5034387;28;20459;-89
2022/10/25 07:33:25;;;;;;;9.20;3.90;;;13.40;99.90;;;;;;5033141;28;20211;-92
2022/10/25 07:35:51;;;;;;;7.03;2.97;;;13.40;99.90;;;;;;5034772;28;20179;-89
2022/10/25 07:38:22;;;;;;;7.23;4.40;;;13.40;99.90;;;;;;5018174;28;20547;-89
2022/10/25 07:40:53;;;;;;;5.77;3.23;;;13.50;99.90;;;;;;5019143;28;20177;-89
2022/10/25 07:43:18;;;;;;;12.90;4.63;;;13.60;99.90;;;;;;5020984;28;20450;-89
2022/10/25 07:45:44;;;;;;;8.87;4.27;;;13.60;99.90;;;;;;5052829;28;20447;-91
2022/10/25 07:48:19;;;;;;;7.03;3.80;;;13.70;99.90;;;;;;5010304;28;20240;-91
2022/10/25 07:50:45;;;;;;;6.23;3.63;;;13.70;99.90;;;;;;5008463;28;20224;-89
2022/10/25 07:53:10;;;;;;;5.90;3.40;;;13.70;99.90;;;;;;5009172;28;20481;-89
2022/10/25 07:55:36;;;;;;;9.20;4.67;;;13.80;99.90;;;;;;5008245;28;20180;-92
2022/10/25 07:58:07;;;;;;;5.77;3.73;;;13.80;99.90;;;;;;5009042;28;20167;-89
2022/10/25 08:00:36;;;;;;;9.83;4.90;;;13.90;99.90;;;;;;5010995;28;20554;-90
2022/10/25 08:03:02;;;;;;;8.80;4.43;;;13.90;99.90;;;;;;5003914;28;20795;-92
2022/10/25 08:05:29;;;;;;;8.40;4.77;;;14.00;99.90;;;;;;5020298;28;20422;-92
2022/10/25 08:07:57;;;;;;;9.00;4.77;;;14.10;99.90;;;;;;5009962;28;20411;-92
2022/10/25 08:10:23;;;;;;;8.93;5.47;;;14.00;99.90;;;;;;5021131;28;20458;-93
2022/10/25 08:12:49;;;;;;;7.10;4.53;;;14.00;99.90;;;;;;5042586;28;20417;-88
2022/10/25 08:15:16;;;;;;;7.70;4.87;;;14.10;99.90;;;;;;5059125;28;20184;-87
2022/10/25 08:17:44;;;;;;;7.63;4.80;;;14.10;99.90;;;;;;5059719;28;20802;-92
2022/10/25 08:20:10;;;;;;;10.63;4.50;;;14.20;99.90;;;;;;5060552;28;20429;-87
2022/10/25 08:22:36;;;;;;;6.00;4.70;;;14.20;99.90;;;;;;5059027;28;20425;-91
2022/10/25 08:25:03;;;;;;;7.97;5.40;;;14.20;99.90;;;;;;5055791;28;20210;-87
2022/10/25 08:27:33;;;;;;;9.70;5.33;;;14.30;99.90;;;;;;5042081;28;20236;-86
2022/10/25 08:30:02;;;;;;;14.23;5.57;;;14.30;99.90;;;;;;5043502;28;20424;-87
2022/10/25 08:32:30;;;;;;;9.60;5.70;;;14.30;99.90;;;;;;5056421;28;20421;-88
2022/10/25 08:34:55;;;;;;;7.90;4.63;;;14.30;99.90;;;;;;5044031;28;20490;-87
2022/10/25 08:37:21;;;;;;;9.17;6.20;;;14.40;99.90;;;;;;5001801;28;20770;-86
2022/10/25 08:39:46;;;;;;;9.73;5.17;;;14.40;99.90;;;;;;5035314;28;20643;-87
2022/10/25 08:42:23;;;;;;;8.50;4.80;;;14.40;99.90;;;;;;5035347;28;20174;-86
2022/10/25 08:45:13;;;;;;;8.57;5.73;;;14.60;99.90;;;;;;5035196;28;20178;-88
2022/10/25 08:47:43;;;;;;;12.43;6.47;;;14.50;99.90;;;;;;5013967;28;20456;-88
2022/10/25 08:50:19;;;;;;;9.20;5.10;;;14.50;99.90;;;;;;5034395;28;20456;-88
2022/10/25 08:52:48;;;;;;;10.80;5.50;;;14.50;99.90;;;;;;5035254;28;20749;-87
2022/10/25 08:55:23;;;;;;;10.97;4.73;;;14.60;99.90;;;;;;5017768;28;20477;-86
2022/10/25 08:57:51;;;;;;;7.40;4.63;;;14.60;99.90;;;;;;5017508;28;20414;-87
2022/10/25 09:00:20;;;;;;;8.00;4.90;;;14.80;99.90;;;;;;5017119;28;20944;-88
2022/10/25 09:02:54;;;;;;;5.23;3.80;;;14.90;99.90;;;;;;5017169;28;20426;-87
2022/10/25 09:05:41;;;;;;;6.10;3.60;;;15.10;99.90;;;;;;5034516;28;20534;-86
2022/10/25 09:08:09;;;;;;;8.70;4.30;;;15.20;99.90;;;;;;5034885;28;20404;-87
2022/10/25 09:10:49;;;;;;;7.23;3.00;;;15.30;99.90;;;;;;5034723;28;20421;-86
2022/10/25 09:13:39;;;;;;;7.50;4.53;;;15.30;99.90;;;;;;5034505;28;20455;-87
2022/10/25 09:16:10;;;;;;;6.03;3.07;;;15.40;99.90;;;;;;5017063;28;20431;-89
2022/10/25 09:18:53;;;;;;;6.83;2.70;;;15.70;99.90;;;;;;5034523;28;20416;-87
2022/10/25 09:21:21;;;;;;;8.57;3.67;;;15.70;99.90;;;;;;5017070;28;20457;-90
2022/10/25 09:23:57;;;;;;;5.13;2.60;;;15.90;99.90;;;;;;5034851;28;20422;-87
2022/10/25 09:26:41;;;;;;;5.33;3.07;;;15.90;99.90;;;;;;5034453;28;20412;-86
2022/10/25 09:29:16;;;;;;;6.87;3.33;;;15.80;99.90;;;;;;5015805;28;20453;-88
2022/10/25 09:31:48;;;;;;;9.67;3.23;;;15.90;99.90;;;;;;5014775;28;20798;-86
2022/10/25 09:34:17;;;;;;;6.27;3.40;;;16.00;99.90;;;;;;5033503;28;20478;-86
2022/10/25 09:36:46;;;;;;;4.03;2.60;;;16.10;99.90;;;;;;5034522;28;21045;-84
2022/10/25 09:39:19;;;;;;;5.63;4.23;;;16.30;99.90;;;;;;5032982;28;20415;-86
2022/10/25 09:41:52;;;;;;;6.43;2.50;;;17.00;82.00;;;;;;5033888;28;20506;-85
2022/10/25 09:44:39;;;;;;;4.30;2.63;;;17.40;1.00;;;;;;5034210;28;20408;-87
2022/10/25 09:47:19;;;;;;;4.60;2.90;;;18.40;99.90;;;;;;5034463;28;20444;-87
2022/10/25 09:50:05;;;;;;;3.30;1.83;;;17.20;1.00;;;;;;5033689;28;20822;-84
2022/10/25 09:52:47;;;;;;;5.63;2.53;;;17.50;1.00;;;;;;5034072;28;20406;-84
2022/10/25 09:55:40;;;;;;;4.80;2.17;;;17.20;1.00;;;;;;5033900;28;20550;-84
2022/10/25 09:58:14;;;;;;;4.50;1.97;;;18.10;99.90;;;;;;5034147;28;20410;-84
2022/10/25 10:00:40;;;;;;;5.23;1.53;;;18.10;99.90;;;;;;5034262;28;20969;-84
2022/10/25 10:03:07;;;;;;;3.83;1.80;;;19.60;1.00;;;;;;5034551;28;20427;-88
2022/10/25 10:05:35;;;;;;;6.33;2.37;;;18.90;1.00;;;;;;5034081;28;20200;-90
2022/10/25 10:08:00;;;;;;;2.50;1.53;;;18.40;1.00;;;;;;5049626;28;20935;-87
2022/10/25 10:10:33;;;;;;;3.03;2.37;;;17.90;99.90;;;;;;5034077;28;20410;-87
2022/10/25 10:13:11;;;;;;;3.70;1.90;;;18.20;1.00;;;;;;5034006;28;20180;-87
2022/10/25 10:15:49;;;;;;;3.57;2.07;;;17.40;1.00;;;;;;5023846;28;20424;-87
2022/10/25 10:18:25;;;;;;;5.30;2.13;;;18.00;99.90;;;;;;5045313;28;20431;-89
2022/10/25 10:21:09;;;;;;;4.20;1.87;;;20.00;1.00;;;;;;5036711;28;20450;-89
2022/10/25 10:23:41;;;;;;;6.50;2.00;;;19.70;99.90;;;;;;5038735;28;20497;-87
2022/10/25 10:26:20;;;;;;;4.73;1.50;;;20.60;1.00;;;;;;5025667;28;20403;-88
2022/10/25 10:28:54;;;;;;;5.87;2.13;;;20.50;1.00;;;;;;5041105;28;20412;-88
2022/10/25 10:31:19;;;;;;;7.73;2.03;;;19.80;1.00;;;;;;5044115;28;20757;-91
2022/10/25 10:33:50;;;;;;;3.60;1.50;;;19.60;1.00;;;;;;5039542;28;20468;-86
2022/10/25 10:36:23;;;;;;;5.43;2.07;;;18.90;99.90;;;;;;5024353;28;20172;-89
2022/10/25 10:38:49;;;;;;;6.60;2.33;;;18.50;1.00;;;;;;5040593;28;20422;-91
2022/10/25 10:41:24;;;;;;;4.10;1.57;;;18.00;1.00;;;;;;5040596;28;20421;-89
2022/10/25 10:43:53;;;;;;;4.07;1.73;;;17.80;99.90;;;;;;5038171;28;20536;-90
2022/10/25 10:46:20;;;;;;;3.97;1.50;;;17.70;99.90;;;;;;5026297;28;20410;-88
2022/10/25 10:48:52;;;;;;;8.27;2.97;;;17.70;1.00;;;;;;5048346;28;20427;-89
2022/10/25 10:51:32;;;;;;;5.30;2.67;;;17.50;1.00;;;;;;5050891;28;20449;-89
2022/10/25 10:54:19;;;;;;;5.10;2.80;;;17.30;1.00;;;;;;5025293;28;20467;-88
2022/10/25 10:56:56;;;;;;;3.83;2.30;;;16.90;1.00;;;;;;5036829;28;20435;-89
2022/10/25 10:59:33;;;;;;;4.33;2.00;;;16.90;19.20;;;;;;5052315;28;20474;-91
2022/10/25 11:02:20;;;;;;;7.20;2.70;;;16.80;27.30;;;;;;5053159;28;20418;-87
2022/10/25 11:04:50;;;;;;;3.70;2.07;;;16.60;38.10;;;;;;5052925;28;20420;-87
2022/10/25 11:07:34;;;;;;;4.97;1.70;;;16.80;46.40;;;;;;5053090;28;20793;-87
2022/10/25 11:10:15;;;;;;;5.90;2.63;;;16.70;27.40;;;;;;5035212;28;20457;-89
2022/10/25 11:12:42;;;;;;;4.27;1.77;;;16.50;56.90;;;;;;5052378;28;20411;-86
2022/10/25 11:15:15;;;;;;;3.80;1.63;;;16.50;62.60;;;;;;5050935;28;20883;-88
2022/10/25 11:17:57;;;;;;;4.23;1.50;;;16.90;1.00;;;;;;5052658;28;20419;-92
2022/10/25 11:20:32;;;;;;;6.57;1.77;;;16.90;1.00;;;;;;5052632;28;20406;-87
2022/10/25 11:23:31;;;;;;;4.90;1.00;;;16.80;1.00;;;;;;5052781;28;20409;-87
2022/10/25 11:26:06;;;;;;;6.00;2.17;;;17.20;1.00;;;;;;5014384;28;20431;-86
2022/10/25 11:29:08;;;;;;;4.30;1.50;;;17.20;1.00;;;;;;5052934;28;20407;-85
2022/10/25 11:31:36;;;;;;;7.60;1.73;;;17.30;1.00;;;;;;5052746;28;20890;-88
2022/10/25 11:34:28;;;;;;;3.63;1.27;;;17.20;99.90;;;;;;5052064;28;20567;-87
2022/10/25 11:37:12;;;;;;;5.83;1.70;;;17.30;1.00;;;;;;5052918;28;20412;-87
2022/10/25 11:39:45;;;;;;;5.63;1.40;;;17.30;99.90;;;;;;5055174;28;20417;-89
2022/10/25 11:42:44;;;;;;;4.23;1.53;;;17.10;1.00;;;;;;5056502;28;20497;-85
2022/10/25 11:45:18;;;;;;;4.33;1.70;;;17.00;1.00;;;;;;5056263;28;20420;-87
2022/10/25 11:48:03;;;;;;;2.73;1.30;;;17.10;1.00;;;;;;5056263;28;20422;-87
2022/10/25 11:51:07;;;;;;;4.57;1.80;;;17.10;1.00;;;;;;5055883;28;20454;-86
2022/10/25 11:53:32;;;;;;;2.77;0.83;;;17.10;1.00;;;;;;5055896;28;20467;-88
2022/10/25 11:56:12;;;;;;;3.30;1.70;;;17.40;1.00;;;;;;5056112;28;20943;-87
2022/10/25 11:59:10;;;;;;;3.23;1.50;;;17.30;1.00;;;;;;5056021;28;20165;-88
2022/10/25 12:01:35;;;;;;;4.10;1.73;;;17.00;1.00;;;;;;5056002;28;20411;-89
2022/10/25 12:04:22;;;;;;;3.20;1.07;;;17.00;99.90;;;;;;5055962;28;20465;-88
2022/10/25 12:07:02;;;;;;;2.67;0.73;;;17.10;99.90;;;;;;5054807;28;20181;-86
2022/10/25 12:09:54;;;;;;;2.03;1.13;;;16.90;99.90;;;;;;5038296;28;20469;-89
2022/10/25 12:12:25;;;;;;;3.47;0.50;;;16.60;99.90;;;;;;5054683;28;20481;-87
2022/10/25 12:14:56;;;;;;;6.10;1.40;;;16.20;99.90;;;;;;5054549;28;21037;-87
2022/10/25 12:17:26;;;;;;;3.10;1.03;;;16.10;1.00;;;;;;5054982;28;20480;-90
2022/10/25 12:19:58;;;;;;;3.80;1.00;;;16.00;1.00;;;;;;5054763;28;20807;-86
2022/10/25 12:22:32;;;;;;;2.60;0.50;;;16.00;1.00;;;;;;5055677;28;20405;-86
2022/10/25 12:25:07;;;;;;;2.93;0.63;;;16.00;1.00;;;;;;5055616;28;20417;-87
2022/10/25 12:27:34;;;;;;;6.97;1.07;;;16.10;1.00;;;;;;5037811;28;20424;-88
2022/10/25 12:30:13;;;;;;;3.20;0.57;;;16.60;1.00;;;;;;5037872;28;20406;-89
2022/10/25 12:32:56;;;;;;;2.47;1.10;;;16.90;1.00;;;;;;5037773;28;20415;-87
2022/10/25 12:35:32;;;;;;;6.87;1.07;;;17.10;99.90;;;;;;5037514;28;20516;-85
2022/10/25 12:38:03;;;;;;;4.57;0.70;;;16.80;99.90;;;;;;5037592;28;20514;-86
2022/10/25 12:40:36;;;;;;;1.80;0.70;;;16.80;1.00;;;;;;5054302;28;20443;-89
2022/10/25 12:43:31;;;;;;;3.63;0.57;;;17.00;99.90;;;;;;5054373;28;20518;-89
2022/10/25 12:46:00;;;;;;;1.50;0.60;;;17.00;1.00;;;;;;5054627;28;20427;-88
2022/10/25 12:48:54;;;;;;;2.10;0.60;;;17.00;99.90;;;;;;5052940;28;20410;-89
2022/10/25 12:51:37;;;;;;;5.17;0.90;;;16.70;99.90;;;;;;5054060;28;20476;-89
2022/10/25 12:54:33;;;;;;;2.43;0.47;;;16.70;45.40;;;;;;5055082;28;20472;-89
2022/10/25 12:56:59;;;;;;;1.20;0.20;;;16.60;99.90;;;;;;5055373;28;20403;-88
2022/10/25 12:59:38;;;;;;;3.13;0.30;;;16.60;99.90;;;;;;5054177;28;20418;-90
2022/10/25 13:02:34;;;;;;;4.67;1.03;;;16.50;99.90;;;;;;5055559;28;20201;-87
2022/10/25 13:05:24;;;;;;;6.83;0.80;;;16.40;99.90;;;;;;5037384;28;20422;-88
2022/10/25 13:07:53;;;;;;;3.10;0.80;;;16.30;99.90;;;;;;5055308;28;20503;-88
2022/10/25 13:10:21;;;;;;;3.67;0.80;;;16.20;99.90;;;;;;5055287;28;20423;-87